Time;durP1;ratioP1;P1;durP2;ratioP2;P2;SDS_P1;SDS_P2;PMS_P1;PMS_P2;Temp;Humidity;BMP_temperature;BMP_pressure;BME280_temperature;BME280_humidity;BME280_pressure;Samples;Min_cycle;Max_cycle;Signal;HPM_P1;HPM_P2
2023/07/26 00:02:26;;;;;;;2.40;1.73;;;17.50;89.10;;;;;;5051075;22;20496;-85
2023/07/26 00:05:22;;;;;;;3.13;2.07;;;17.50;89.10;;;;;;4988778;28;20539;-82
2023/07/26 00:08:09;;;;;;;5.10;1.53;;;17.50;89.80;;;;;;5009087;28;20442;-84
2023/07/26 00:11:13;;;;;;;2.30;1.47;;;17.50;90.00;;;;;;5003610;28;20504;-81
2023/07/26 00:14:09;;;;;;;1.97;1.50;;;17.60;90.20;;;;;;4995510;28;20554;-83
2023/07/26 00:17:05;;;;;;;2.60;1.80;;;17.60;90.10;;;;;;4989803;28;20974;-82
2023/07/26 00:20:24;;;;;;;3.67;1.80;;;17.50;90.30;;;;;;4900498;29;20466;-84
2023/07/26 00:23:30;;;;;;;3.23;1.63;;;17.50;90.40;;;;;;5010838;28;20458;-83
2023/07/26 00:26:13;;;;;;;1.70;1.60;;;17.40;90.60;;;;;;4979194;28;20462;-84
2023/07/26 00:28:59;;;;;;;2.20;1.80;;;17.40;90.80;;;;;;4991328;28;20676;-84
2023/07/26 00:35:16;;;;;;;;;;;;;;;;;;;;;
2023/07/26 00:38:13;;;;;;;3.33;1.37;;;17.40;91.10;;;;;;5009439;28;20466;-82
2023/07/26 00:41:10;;;;;;;1.83;1.47;;;17.40;91.20;;;;;;4995693;28;20679;-85
2023/07/26 00:43:51;;;;;;;2.30;1.57;;;17.40;91.30;;;;;;5008539;28;20472;-83
2023/07/26 00:47:00;;;;;;;1.50;1.13;;;17.40;91.30;;;;;;5007934;28;22453;-84
2023/07/26 00:50:08;;;;;;;3.30;1.50;;;17.40;91.40;;;;;;4999687;28;20518;-83
2023/07/26 00:53:09;;;;;;;2.63;1.33;;;17.40;91.30;;;;;;4992310;28;20469;-83
2023/07/26 00:56:31;;;;;;;1.40;1.30;;;17.50;91.40;;;;;;5008514;28;21147;-83
2023/07/26 00:59:17;;;;;;;2.07;1.60;;;17.50;91.40;;;;;;5009693;28;21031;-83
2023/07/26 01:01:56;;;;;;;3.33;2.10;;;17.50;91.40;;;;;;4998968;28;20498;-83
2023/07/26 01:04:57;;;;;;;1.37;1.27;;;17.50;91.40;;;;;;5010743;28;20582;-82
2023/07/26 01:08:08;;;;;;;1.60;1.33;;;17.50;91.40;;;;;;4995267;28;20964;-83
2023/07/26 01:11:44;;;;;;;3.37;1.53;;;17.40;91.50;;;;;;4994958;28;21869;-84
2023/07/26 01:14:53;;;;;;;2.97;1.67;;;17.40;91.50;;;;;;4913755;29;20554;-83
2023/07/26 01:17:36;;;;;;;3.47;1.77;;;17.40;91.80;;;;;;4945761;28;20477;-83
2023/07/26 01:20:50;;;;;;;1.90;1.60;;;17.40;91.90;;;;;;4993330;28;20494;-84
2023/07/26 01:23:43;;;;;;;2.30;1.50;;;17.40;91.80;;;;;;4991501;28;20465;-83
2023/07/26 01:26:39;;;;;;;2.00;1.40;;;17.40;92.00;;;;;;4991715;28;20490;-82
2023/07/26 01:29:29;;;;;;;4.23;1.77;;;17.40;92.30;;;;;;4993700;28;20545;-80
2023/07/26 01:32:09;;;;;;;2.10;1.37;;;17.40;92.60;;;;;;4991750;28;20501;-84
2023/07/26 01:35:11;;;;;;;1.73;1.63;;;17.30;92.60;;;;;;4995866;28;20430;-81
2023/07/26 01:38:30;;;;;;;3.27;1.83;;;17.40;92.70;;;;;;4993091;28;20519;-82
2023/07/26 01:41:23;;;;;;;2.07;1.73;;;17.50;92.80;;;;;;4990778;28;21039;-82
2023/07/26 01:44:09;;;;;;;3.10;1.50;;;17.90;91.90;;;;;;5007088;28;20802;-83
2023/07/26 01:47:09;;;;;;;;;;;;;;;;;;;;;
2023/07/26 01:49:59;;;;;;;2.07;1.77;;;17.40;92.50;;;;;;5007030;28;20501;-85
2023/07/26 01:52:56;;;;;;;1.90;1.67;;;17.40;92.80;;;;;;4993065;28;20453;-85
2023/07/26 01:55:45;;;;;;;2.23;1.87;;;17.30;93.10;;;;;;4995158;28;20549;-84
2023/07/26 01:58:36;;;;;;;1.93;1.60;;;17.50;93.10;;;;;;5019778;28;20482;-82
2023/07/26 02:01:16;;;;;;;1.60;1.50;;;17.70;92.70;;;;;;5004012;28;20477;-81
2023/07/26 02:04:25;;;;;;;2.20;2.00;;;17.80;92.30;;;;;;5002051;28;20462;-82
2023/07/26 02:07:15;;;;;;;4.30;2.13;;;17.50;92.70;;;;;;4982011;28;20426;-82
2023/07/26 02:09:59;;;;;;;2.57;2.03;;;17.60;93.10;;;;;;5020254;28;20442;-83
2023/07/26 02:12:38;;;;;;;3.87;2.00;;;17.40;93.10;;;;;;5010078;28;20465;-81
2023/07/26 02:15:22;;;;;;;2.40;1.87;;;17.30;93.50;;;;;;5010889;28;20450;-82
2023/07/26 02:18:06;;;;;;;2.10;1.73;;;17.20;93.90;;;;;;5009816;28;20473;-81
2023/07/26 02:20:48;;;;;;;2.83;1.97;;;17.20;93.90;;;;;;4990839;28;20492;-82
2023/07/26 02:23:23;;;;;;;1.93;1.83;;;17.20;94.00;;;;;;4983324;28;20458;-84
2023/07/26 02:26:13;;;;;;;2.70;1.80;;;17.60;93.90;;;;;;5002173;28;20458;-83
2023/07/26 02:29:34;;;;;;;3.97;1.67;;;17.50;93.40;;;;;;4989004;28;20462;-81
2023/07/26 02:32:21;;;;;;;2.70;1.80;;;17.40;93.70;;;;;;4995719;28;20577;-83
2023/07/26 02:35:13;;;;;;;2.47;1.70;;;17.20;93.90;;;;;;4991078;28;20443;-83
2023/07/26 02:38:16;;;;;;;2.43;2.23;;;17.10;94.20;;;;;;4995073;28;20561;-81
2023/07/26 02:41:13;;;;;;;3.00;2.40;;;17.10;94.40;;;;;;4991914;28;20486;-85
2023/07/26 02:47:17;;;;;;;2.47;1.87;;;17.00;94.70;;;;;;4952161;28;21241;-84
2023/07/26 02:50:09;;;;;;;2.23;2.03;;;17.00;94.90;;;;;;4991715;28;20460;-82
2023/07/26 02:53:00;;;;;;;3.63;2.40;;;17.00;95.00;;;;;;4990445;28;20980;-83
2023/07/26 02:55:51;;;;;;;3.20;2.90;;;17.40;94.40;;;;;;5006648;28;20521;-84
2023/07/26 02:58:41;;;;;;;2.67;2.47;;;17.60;93.50;;;;;;4991879;28;20494;-84
2023/07/26 03:01:18;;;;;;;2.90;2.53;;;17.60;93.30;;;;;;4991961;28;20568;-81
2023/07/26 03:04:10;;;;;;;2.47;2.27;;;17.40;93.50;;;;;;4994440;28;20549;-82
2023/07/26 03:06:54;;;;;;;3.00;2.80;;;17.40;93.80;;;;;;5007954;28;20465;-84
2023/07/26 03:09:46;;;;;;;2.27;2.00;;;17.40;93.90;;;;;;4991163;28;20438;-84
2023/07/26 03:12:24;;;;;;;3.10;2.80;;;17.30;94.00;;;;;;4984713;28;20485;-83
2023/07/26 03:15:17;;;;;;;2.73;2.50;;;17.40;94.10;;;;;;4994405;28;20461;-83
2023/07/26 03:18:03;;;;;;;3.00;2.80;;;17.20;94.20;;;;;;4987187;28;20466;-83
2023/07/26 03:20:50;;;;;;;3.33;2.70;;;17.20;94.40;;;;;;4987590;28;21883;-84
2023/07/26 03:23:56;;;;;;;2.87;2.60;;;17.30;94.50;;;;;;4909161;29;20453;-83
2023/07/26 03:26:47;;;;;;;3.10;2.83;;;17.20;94.40;;;;;;4984870;28;20462;-84
2023/07/26 03:29:42;;;;;;;3.23;2.90;;;17.20;94.60;;;;;;4989605;28;20439;-85
2023/07/26 03:32:36;;;;;;;2.90;2.70;;;17.00;94.70;;;;;;5004000;28;20477;-86
2023/07/26 03:35:46;;;;;;;2.57;2.37;;;17.10;95.00;;;;;;4995101;28;20548;-82
2023/07/26 03:38:30;;;;;;;3.23;2.90;;;17.00;95.20;;;;;;4995767;28;20484;-82
2023/07/26 03:41:22;;;;;;;3.33;3.10;;;16.90;95.30;;;;;;4994191;28;20495;-81
2023/07/26 03:44:21;;;;;;;3.53;2.87;;;17.00;95.30;;;;;;4997911;28;20459;-85
2023/07/26 03:47:14;;;;;;;2.90;2.70;;;17.00;95.00;;;;;;5026293;28;20808;-80
2023/07/26 03:50:00;;;;;;;;;;;;;;;;;;;;;
2023/07/26 03:53:11;;;;;;;4.20;2.97;;;17.00;95.00;;;;;;5011805;28;20509;-84
2023/07/26 03:56:03;;;;;;;3.70;2.87;;;17.00;95.00;;;;;;4979796;28;20434;-83
2023/07/26 03:59:24;;;;;;;4.30;3.63;;;16.90;95.20;;;;;;4968160;28;20457;-85
2023/07/26 04:02:05;;;;;;;5.40;3.73;;;16.90;95.20;;;;;;5014368;28;20482;-82
2023/07/26 04:05:22;;;;;;;4.43;4.07;;;16.90;95.30;;;;;;4998548;28;20475;-81
2023/07/26 04:08:02;;;;;;;7.53;4.10;;;16.90;95.40;;;;;;5011613;28;20453;-84
2023/07/26 04:10:54;;;;;;;3.73;3.20;;;16.80;95.60;;;;;;4994759;28;20473;-83
2023/07/26 04:27:01;;;;;;;3.10;2.90;;;16.60;95.70;;;;;;1403371;26;20478;-82
2023/07/26 04:30:10;;;;;;;2.63;2.43;;;16.60;95.90;;;;;;5010310;28;20457;-83
2023/07/26 04:33:11;;;;;;;2.97;2.67;;;16.50;96.20;;;;;;4991759;28;20464;-80
2023/07/26 04:39:22;;;;;;;2.20;1.83;;;16.60;96.20;;;;;;5008231;28;20458;-82
2023/07/26 04:42:31;;;;;;;2.73;2.50;;;16.60;96.20;;;;;;4984541;28;20473;-82
2023/07/26 04:45:38;;;;;;;3.00;2.47;;;16.70;96.20;;;;;;4988188;28;20493;-84
2023/07/26 04:48:42;;;;;;;2.90;2.60;;;16.70;96.20;;;;;;4993785;28;20464;-82
2023/07/26 04:51:32;;;;;;;2.60;2.40;;;16.80;96.10;;;;;;4989959;28;20490;-83
2023/07/26 04:54:36;;;;;;;2.37;2.17;;;16.80;96.40;;;;;;5009138;28;20461;-82
2023/07/26 04:57:26;;;;;;;2.80;2.17;;;16.80;96.30;;;;;;4989700;28;20458;-82
2023/07/26 05:00:50;;;;;;;2.80;1.67;;;17.20;95.20;;;;;;4926950;29;20503;-80
2023/07/26 05:03:40;;;;;;;2.97;1.77;;;17.10;94.70;;;;;;4918174;29;20494;-81
2023/07/26 05:07:01;;;;;;;1.90;1.60;;;16.90;94.40;;;;;;4911679;29;20520;-85
2023/07/26 05:09:36;;;;;;;3.10;1.87;;;16.90;94.60;;;;;;4904834;29;20470;-84
2023/07/26 05:12:25;;;;;;;2.33;2.23;;;16.90;94.80;;;;;;5892710;22;20777;-80
2023/07/26 05:21:25;;;;;;;;;;;;;;;;;;;;;
2023/07/26 05:34:48;;;;;;;2.27;2.07;;;17.20;95.40;;;;;;5000010;28;20460;-84
2023/07/26 05:37:53;;;;;;;2.20;2.10;;;17.10;95.30;;;;;;4987611;28;21066;-84
2023/07/26 05:41:13;;;;;;;;;;;;;;;;;;;;;
2023/07/26 05:44:10;;;;;;;2.97;2.50;;;17.40;94.90;;;;;;4992837;28;20469;-80
2023/07/26 05:47:07;;;;;;;3.03;2.63;;;17.60;94.40;;;;;;4994043;28;20481;-81
2023/07/26 05:53:20;;;;;;;4.60;3.07;;;17.60;94.10;;;;;;1396819;26;20481;-83
2023/07/26 05:56:53;;;;;;;4.00;3.20;;;17.30;94.60;;;;;;5011767;28;20477;-85
2023/07/26 06:13:33;;;;;;;2.77;2.57;;;17.70;94.10;;;;;;6199890;23;20404;-82
2023/07/26 06:19:06;;;;;;;5.20;2.83;;;17.70;94.10;;;;;;6225878;22;20479;-85
2023/07/26 06:22:23;;;;;;;3.97;2.87;;;17.50;94.30;;;;;;6195226;22;20464;-83
2023/07/26 06:25:06;;;;;;;5.17;3.63;;;17.20;94.80;;;;;;6223514;23;20474;-83
2023/07/26 06:28:11;;;;;;;3.10;2.90;;;17.70;94.40;;;;;;6188716;23;20814;-81
2023/07/26 06:31:08;;;;;;;4.00;2.97;;;17.80;94.10;;;;;;6079951;23;20472;-81
2023/07/26 06:34:16;;;;;;;2.60;2.40;;;18.00;93.90;;;;;;6062931;23;20412;-83
2023/07/26 06:41:01;;;;;;;;;;;;;;;;;;;;;
2023/07/26 06:44:10;;;;;;;;;;;;;;;;;;;;;
2023/07/26 06:50:51;;;;;;;3.77;2.60;;;18.50;92.80;;;;;;6207904;23;20412;-82
2023/07/26 06:53:43;;;;;;;4.80;3.10;;;18.50;92.70;;;;;;6177829;23;20449;-82
2023/07/26 06:57:01;;;;;;;3.30;2.73;;;18.40;92.90;;;;;;6154263;23;20409;-84
2023/07/26 07:00:12;;;;;;;4.00;2.53;;;18.40;92.60;;;;;;6036351;23;20465;-81
2023/07/26 07:06:12;;;;;;;6.50;3.67;;;18.90;92.10;;;;;;6033526;23;20523;-82
2023/07/26 07:09:15;;;;;;;;;;;;;;;;;;;;;
2023/07/26 07:12:21;;;;;;;3.73;3.20;;;18.90;91.70;;;;;;6134299;23;20510;-81
2023/07/26 07:15:38;;;;;;;;;;;;;;;;;;;;;
2023/07/26 07:18:53;;;;;;;3.77;2.90;;;19.20;91.60;;;;;;6023612;23;20567;-81
2023/07/26 07:22:00;;;;;;;4.73;2.87;;;19.10;91.30;;;;;;6075132;23;20873;-83
2023/07/26 07:24:57;;;;;;;11.00;2.90;;;18.90;91.90;;;;;;6165125;23;20485;-80
2023/07/26 07:27:44;;;;;;;3.20;2.90;;;19.00;92.00;;;;;;6152424;23;20450;-82
2023/07/26 07:34:02;;;;;;;4.67;2.90;;;19.90;90.60;;;;;;6215591;23;20459;-81
2023/07/26 07:37:36;;;;;;;15.57;3.47;;;19.50;90.60;;;;;;6122387;23;20412;-82
2023/07/26 07:44:35;;;;;;;5.93;2.40;;;19.40;91.50;;;;;;6069899;23;20523;-84
2023/07/26 07:47:40;;;;;;;6.17;2.70;;;19.50;91.60;;;;;;6005247;23;20466;-81
2023/07/26 07:51:32;;;;;;;4.10;2.50;;;19.80;91.20;;;;;;5925555;24;20410;-81
2023/07/26 07:54:57;;;;;;;6.10;2.70;;;19.60;90.90;;;;;;5927766;24;20390;-83
2023/07/26 07:58:09;;;;;;;5.77;2.53;;;19.60;90.90;;;;;;5845836;24;20419;-83
2023/07/26 08:01:50;;;;;;;3.00;2.23;;;20.00;91.10;;;;;;5814959;24;20483;-83
2023/07/26 08:05:08;;;;;;;28.47;4.83;;;20.20;90.50;;;;;;5814241;24;21130;-84
2023/07/26 08:07:40;;;;;;;11.43;3.03;;;20.60;90.20;;;;;;5816353;24;20575;-82
2023/07/26 08:10:24;;;;;;;9.13;3.00;;;20.70;89.70;;;;;;5867119;24;20424;-84
2023/07/26 08:13:34;;;;;;;2.83;2.53;;;20.70;88.90;;;;;;5865585;24;20408;-82
2023/07/26 08:17:10;;;;;;;;;;;;;;;;;;;;;
2023/07/26 08:27:06;;;;;;;3.87;2.80;;;20.30;90.20;;;;;;6152326;23;20394;-83
2023/07/26 08:30:07;;;;;;;4.83;2.43;;;20.10;90.50;;;;;;6152920;23;20382;-81
2023/07/26 08:33:13;;;;;;;3.70;2.87;;;19.90;91.10;;;;;;6120161;23;20557;-85
2023/07/26 08:36:20;;;;;;;7.17;2.93;;;19.80;91.40;;;;;;6096144;23;20582;-85
2023/07/26 08:39:07;;;;;;;5.00;2.30;;;20.60;91.20;;;;;;6097069;23;20952;-82
2023/07/26 08:42:01;;;;;;;5.80;2.90;;;21.70;86.20;;;;;;6098222;23;20436;-81
2023/07/26 08:45:28;;;;;;;2.60;2.10;;;22.50;82.50;;;;;;6078939;23;20411;-84
2023/07/26 08:48:44;;;;;;;3.60;3.10;;;22.70;81.10;;;;;;6097291;23;20451;-84
2023/07/26 08:51:47;;;;;;;;;;;;;;;;;;;;;
2023/07/26 08:55:19;;;;;;;3.97;2.50;;;22.90;76.00;;;;;;6124885;23;20510;-82
2023/07/26 08:58:50;;;;;;;3.57;2.50;;;22.10;77.20;;;;;;6053756;23;20909;-83
2023/07/26 09:01:44;;;;;;;2.70;2.50;;;21.40;80.20;;;;;;6040517;23;20437;-82
2023/07/26 09:05:00;;;;;;;3.13;2.40;;;21.20;81.00;;;;;;6034847;23;20397;-83
2023/07/26 09:08:05;;;;;;;2.70;2.50;;;21.30;80.70;;;;;;5986384;23;20849;-83
2023/07/26 09:11:33;;;;;;;3.57;2.67;;;21.40;81.50;;;;;;5998339;23;20426;-84
2023/07/26 09:14:49;;;;;;;4.97;2.17;;;21.50;81.70;;;;;;6026238;23;20462;-82
2023/07/26 09:18:15;;;;;;;;;;;;;;;;;;;;;
2023/07/26 09:21:10;;;;;;;4.00;3.07;;;21.30;79.30;;;;;;6045452;23;20481;-83
2023/07/26 09:24:09;;;;;;;3.33;2.23;;;21.40;79.00;;;;;;6046692;23;20521;-83
2023/07/26 09:27:26;;;;;;;4.30;2.33;;;21.10;80.00;;;;;;6058952;23;20409;-81
2023/07/26 09:34:20;;;;;;;5.30;2.80;;;20.60;84.70;;;;;;5911845;24;20475;-79
2023/07/26 09:37:53;;;;;;;5.00;3.70;;;20.40;88.80;;;;;;5918113;23;20534;-82
2023/07/26 09:41:10;;;;;;;3.33;3.03;;;20.40;90.40;;;;;;6052990;23;20441;-83
2023/07/26 09:44:03;;;;;;;3.40;2.87;;;21.30;88.60;;;;;;6101123;23;20459;-83
2023/07/26 09:46:50;;;;;;;3.70;3.00;;;22.70;84.80;;;;;;6100243;23;20423;-84
2023/07/26 09:49:50;;;;;;;4.73;2.80;;;24.70;72.90;;;;;;6101053;23;20458;-84
2023/07/26 09:53:26;;;;;;;2.53;2.33;;;24.90;68.80;;;;;;6111332;23;20419;-82
2023/07/26 09:56:06;;;;;;;3.27;2.57;;;24.60;66.80;;;;;;6131405;23;20419;-83
2023/07/26 10:06:51;;;;;;;5.03;2.90;;;23.20;67.80;;;;;;5999196;23;20406;-82
2023/07/26 10:09:53;;;;;;;6.00;3.63;;;22.60;73.00;;;;;;6012412;23;20391;-81
2023/07/26 10:13:10;;;;;;;4.23;2.53;;;22.00;77.00;;;;;;6080343;23;20486;-83
2023/07/26 10:16:09;;;;;;;5.13;3.33;;;21.60;80.90;;;;;;6104300;23;20396;-82
2023/07/26 10:23:25;;;;;;;4.07;3.27;;;21.00;90.00;;;;;;6045614;23;20521;-83
2023/07/26 10:26:29;;;;;;;3.47;3.17;;;20.70;90.40;;;;;;5885124;24;20415;-83
2023/07/26 10:47:10;;;;;;;4.20;3.00;;;20.30;92.60;;;;;;4525373;27;17627844;-82
2023/07/26 10:53:58;;;;;;;5.20;3.53;;;20.20;92.60;;;;;;5083868;28;20480;-84
2023/07/26 10:57:13;;;;;;;4.67;3.63;;;21.90;91.90;;;;;;5047375;28;20464;-85
2023/07/26 11:00:28;;;;;;;5.33;3.67;;;22.50;88.90;;;;;;5083578;28;20430;-83
2023/07/26 11:03:50;;;;;;;4.03;3.23;;;22.40;87.70;;;;;;5070746;28;20457;-85
2023/07/26 11:07:22;;;;;;;3.73;2.60;;;22.10;86.20;;;;;;5104016;28;20547;-79
2023/07/26 11:10:46;;;;;;;2.97;2.40;;;21.70;83.20;;;;;;5098778;28;20453;-81
2023/07/26 11:13:46;;;;;;;3.40;2.30;;;21.10;87.10;;;;;;5090501;28;20442;-82
2023/07/26 11:16:44;;;;;;;4.47;2.83;;;20.60;89.20;;;;;;5098859;28;20498;-83
2023/07/26 11:19:50;;;;;;;;;;;;;;;;;;;;;
2023/07/26 11:23:13;;;;;;;5.20;3.93;;;19.60;93.70;;;;;;5110638;28;20410;-81
2023/07/26 11:26:28;;;;;;;5.60;4.03;;;19.20;95.40;;;;;;5095352;28;20488;-82
2023/07/26 11:29:23;;;;;;;8.17;4.50;;;18.90;96.20;;;;;;5086673;28;20454;-82
2023/07/26 11:32:12;;;;;;;4.53;4.13;;;18.70;96.70;;;;;;5099253;28;20465;-83
2023/07/26 11:34:58;;;;;;;3.37;2.97;;;18.40;95.60;;;;;;5098143;28;20455;-82
2023/07/26 11:37:46;;;;;;;3.90;3.50;;;18.40;95.60;;;;;;5095786;28;20476;-81
2023/07/26 11:41:08;;;;;;;5.80;3.80;;;18.20;95.80;;;;;;5093064;28;20462;-81
2023/07/26 11:43:51;;;;;;;4.93;3.20;;;18.40;95.90;;;;;;5092131;28;20457;-84
2023/07/26 11:46:35;;;;;;;4.03;3.63;;;18.20;96.00;;;;;;5094249;28;20505;-82
2023/07/26 11:49:34;;;;;;;5.27;3.70;;;18.10;96.80;;;;;;5092936;28;20444;-82
2023/07/26 11:52:16;;;;;;;3.50;3.10;;;18.10;97.60;;;;;;5094406;28;20478;-83
2023/07/26 11:55:06;;;;;;;3.70;3.40;;;18.40;97.10;;;;;;5105657;28;20446;-82
2023/07/26 11:58:17;;;;;;;4.17;3.77;;;18.20;96.30;;;;;;5080576;28;20448;-81
2023/07/26 12:01:20;;;;;;;5.23;3.80;;;18.20;97.20;;;;;;5098138;28;20466;-82
2023/07/26 12:04:02;;;;;;;3.73;3.17;;;18.20;98.30;;;;;;5083459;28;20454;-81
2023/07/26 12:06:51;;;;;;;3.47;3.10;;;18.10;98.30;;;;;;5083072;28;20774;-84
2023/07/26 12:13:29;;;;;;;4.50;3.50;;;19.20;98.60;;;;;;5090363;28;20813;-84
2023/07/26 12:16:32;;;;;;;3.40;2.90;;;20.50;96.20;;;;;;5078581;28;20450;-85
2023/07/26 12:19:27;;;;;;;;;;;;;;;;;;;;;
2023/07/26 12:22:25;;;;;;;3.10;2.80;;;21.60;93.60;;;;;;5094302;28;20482;-83
2023/07/26 12:25:16;;;;;;;2.27;2.00;;;21.90;92.50;;;;;;5090792;28;20467;-83
2023/07/26 12:28:32;;;;;;;3.43;2.23;;;22.30;91.40;;;;;;5095943;28;21004;-82
2023/07/26 12:34:27;;;;;;;2.43;2.20;;;22.90;90.30;;;;;;1260319;26;20557;-84
2023/07/26 12:45:39;;;;;;;;;;;;;;;;;;;;;
2023/07/26 12:51:50;;;;;;;3.07;2.77;;;23.30;84.70;;;;;;5026485;28;20539;-83
2023/07/26 12:54:31;;;;;;;3.20;2.90;;;23.40;81.70;;;;;;5028189;28;20449;-82
2023/07/26 13:01:15;;;;;;;2.53;2.33;;;22.40;88.00;;;;;;4987558;28;20597;-84
2023/07/26 13:04:09;;;;;;;3.33;3.03;;;22.20;90.10;;;;;;5001857;28;21924;-84
2023/07/26 13:07:08;;;;;;;2.90;2.60;;;21.80;90.20;;;;;;5025769;28;20767;-84
2023/07/26 13:13:35;;;;;;;3.20;2.90;;;21.00;92.40;;;;;;5026824;28;20453;-82
2023/07/26 13:16:23;;;;;;;3.77;3.47;;;21.40;93.40;;;;;;5024463;28;20550;-83
2023/07/26 13:19:33;;;;;;;4.20;3.90;;;21.60;91.70;;;;;;5025076;28;20487;-81
2023/07/26 13:22:25;;;;;;;4.93;4.20;;;21.60;91.50;;;;;;5093363;22;20498;-84
2023/07/26 13:25:37;;;;;;;4.27;3.93;;;21.40;91.60;;;;;;5017515;28;20483;-81
2023/07/26 13:28:50;;;;;;;4.73;4.00;;;21.00;92.30;;;;;;5012733;28;20467;-82
2023/07/26 13:31:39;;;;;;;6.53;4.27;;;20.60;93.10;;;;;;4987032;28;21081;-84
2023/07/26 13:34:23;;;;;;;6.10;5.20;;;20.60;93.50;;;;;;4999130;28;20459;-85
2023/07/26 13:37:17;;;;;;;5.17;4.70;;;20.60;95.10;;;;;;4982365;28;20466;-84
2023/07/26 13:39:48;;;;;;;8.00;4.23;;;20.20;94.60;;;;;;4986589;28;20487;-81
2023/07/26 13:42:41;;;;;;;4.20;3.80;;;20.40;94.90;;;;;;4983030;28;20635;-82
2023/07/26 13:45:35;;;;;;;4.17;3.87;;;20.60;94.70;;;;;;4980880;28;21111;-83
2023/07/26 13:48:22;;;;;;;5.13;4.13;;;20.90;94.30;;;;;;4993472;28;21081;-82
2023/07/26 13:51:03;;;;;;;4.80;4.40;;;21.50;93.60;;;;;;4995450;28;20541;-83
2023/07/26 13:53:43;;;;;;;4.20;3.80;;;22.00;92.80;;;;;;4979720;28;20839;-83
2023/07/26 13:56:31;;;;;;;4.43;4.03;;;22.20;90.80;;;;;;4984839;28;20901;-83
2023/07/26 13:59:25;;;;;;;5.67;4.00;;;22.00;91.40;;;;;;4985036;28;20447;-83
2023/07/26 14:02:27;;;;;;;6.10;5.50;;;22.10;91.40;;;;;;4982635;28;20475;-82
2023/07/26 14:05:10;;;;;;;4.87;4.43;;;21.80;91.50;;;;;;4996581;28;21353;-81
2023/07/26 14:08:01;;;;;;;4.20;3.80;;;21.60;91.50;;;;;;4999754;28;20526;-83
2023/07/26 14:11:09;;;;;;;5.73;4.37;;;21.50;92.10;;;;;;4981482;28;20486;-83
2023/07/26 14:14:10;;;;;;;5.27;3.53;;;21.80;92.50;;;;;;4982010;28;20623;-84
2023/07/26 14:17:13;;;;;;;4.27;3.80;;;22.30;92.20;;;;;;4958906;28;20482;-84
2023/07/26 14:20:08;;;;;;;5.80;3.70;;;22.50;91.60;;;;;;4996476;28;20871;-83
2023/07/26 14:22:59;;;;;;;4.10;3.37;;;22.60;90.60;;;;;;4984117;28;21109;-82
2023/07/26 14:26:09;;;;;;;4.47;3.60;;;22.60;89.20;;;;;;4986697;28;20498;-82
2023/07/26 14:29:06;;;;;;;5.10;3.67;;;22.20;88.80;;;;;;4985387;28;21207;-84
2023/07/26 14:32:01;;;;;;;3.07;2.80;;;22.30;86.60;;;;;;4987860;28;20487;-83
2023/07/26 14:34:50;;;;;;;3.00;2.70;;;22.00;85.10;;;;;;4987664;28;20467;-81
2023/07/26 14:37:35;;;;;;;5.20;3.50;;;22.00;87.30;;;;;;4989254;28;20527;-82
2023/07/26 14:40:26;;;;;;;4.63;3.57;;;22.00;86.20;;;;;;4984044;28;20459;-83
2023/07/26 14:43:18;;;;;;;3.63;2.87;;;22.10;85.60;;;;;;4999270;28;20537;-83
2023/07/26 14:46:19;;;;;;;3.40;2.83;;;22.10;83.30;;;;;;5001621;28;20490;-85
2023/07/26 14:49:19;;;;;;;3.13;2.93;;;22.20;82.30;;;;;;5007848;28;20469;-85
2023/07/26 14:52:03;;;;;;;2.93;2.73;;;22.30;81.60;;;;;;4986752;28;20480;-81
2023/07/26 14:55:05;;;;;;;3.30;2.63;;;22.60;79.50;;;;;;5007588;28;20456;-81
2023/07/26 14:58:37;;;;;;;3.33;2.97;;;22.60;75.20;;;;;;5024823;28;20448;-82
2023/07/26 15:06:54;;;;;;;3.37;2.77;;;22.60;69.40;;;;;;4953018;28;20830;-83
2023/07/26 15:09:31;;;;;;;3.00;2.70;;;22.60;67.50;;;;;;4949889;29;20524;-83
2023/07/26 15:12:33;;;;;;;2.53;2.33;;;22.70;68.90;;;;;;4948082;28;20476;-84
2023/07/26 15:15:21;;;;;;;3.27;3.03;;;22.80;68.50;;;;;;4946170;29;20474;-84
2023/07/26 15:18:25;;;;;;;3.57;3.07;;;22.70;67.70;;;;;;4948044;28;20488;-83
2023/07/26 15:21:26;;;;;;;3.10;2.80;;;22.70;69.00;;;;;;4959642;28;20476;-83
2023/07/26 15:24:02;;;;;;;4.00;3.23;;;22.80;69.50;;;;;;4945748;29;20476;-83
2023/07/26 15:27:15;;;;;;;3.40;3.10;;;22.90;66.70;;;;;;4917097;28;20507;-83
2023/07/26 15:30:08;;;;;;;3.37;3.07;;;22.90;65.80;;;;;;4956144;29;20460;-81
2023/07/26 15:32:53;;;;;;;3.10;2.80;;;23.10;65.60;;;;;;4947488;28;20440;-82
2023/07/26 15:36:19;;;;;;;4.63;3.63;;;23.10;65.10;;;;;;4952342;28;21802;-83
2023/07/26 15:39:00;;;;;;;3.60;3.00;;;23.10;63.90;;;;;;4949833;28;20492;-82
2023/07/26 15:42:14;;;;;;;6.17;3.20;;;23.10;64.00;;;;;;4917559;29;20483;-81
2023/07/26 15:45:03;;;;;;;3.70;3.27;;;23.10;64.70;;;;;;4916545;29;20466;-82
2023/07/26 15:48:08;;;;;;;3.67;2.93;;;23.10;63.50;;;;;;4916235;29;20429;-82
2023/07/26 15:51:21;;;;;;;2.83;2.63;;;23.00;63.20;;;;;;4913814;29;20533;-82
2023/07/26 15:54:32;;;;;;;3.53;3.23;;;23.10;64.20;;;;;;4898579;29;20518;-80
2023/07/26 15:57:19;;;;;;;3.10;2.80;;;23.00;63.20;;;;;;4911896;29;20469;-82
2023/07/26 16:00:05;;;;;;;3.70;2.53;;;23.10;63.00;;;;;;4898947;29;20530;-84
2023/07/26 16:03:11;;;;;;;2.70;2.50;;;23.10;61.80;;;;;;4891199;29;20484;-82
2023/07/26 16:06:27;;;;;;;3.33;2.83;;;23.00;61.90;;;;;;4897199;29;20565;-84
2023/07/26 16:09:26;;;;;;;3.27;2.90;;;22.90;62.00;;;;;;4860960;29;20441;-82
2023/07/26 16:12:48;;;;;;;;;;;;;;;;;;;;;
2023/07/26 16:15:54;;;;;;;2.97;2.73;;;22.90;60.90;;;;;;4911058;29;20461;-83
2023/07/26 16:18:38;;;;;;;2.83;2.50;;;22.90;61.30;;;;;;4923882;28;20459;-82
2023/07/26 16:21:15;;;;;;;2.90;2.70;;;22.90;62.30;;;;;;4944044;28;20488;-85
2023/07/26 16:24:28;;;;;;;4.30;2.67;;;22.90;61.10;;;;;;4872072;29;20649;-84
2023/07/26 16:27:22;;;;;;;3.40;2.50;;;22.90;61.50;;;;;;4867778;29;20589;-83
2023/07/26 16:30:09;;;;;;;3.17;2.53;;;22.90;61.00;;;;;;4871833;29;20481;-84
2023/07/26 16:32:58;;;;;;;3.30;2.60;;;22.80;61.20;;;;;;4892932;29;20536;-83
2023/07/26 16:35:48;;;;;;;3.03;2.73;;;22.80;60.90;;;;;;4887674;29;20508;-82
2023/07/26 16:38:42;;;;;;;2.70;2.50;;;22.80;62.00;;;;;;4886144;29;20474;-83
2023/07/26 16:42:19;;;;;;;3.63;2.60;;;22.80;61.50;;;;;;4889193;29;20475;-83
2023/07/26 16:45:09;;;;;;;3.00;2.70;;;22.90;60.90;;;;;;4888161;29;20579;-83
2023/07/26 16:48:24;;;;;;;3.57;2.90;;;22.90;60.30;;;;;;4818264;29;20582;-85
2023/07/26 16:51:55;;;;;;;2.60;2.40;;;23.00;60.50;;;;;;4874503;29;20568;-84
2023/07/26 16:55:20;;;;;;;2.77;2.57;;;23.00;60.00;;;;;;4876763;29;20614;-83
2023/07/26 16:58:16;;;;;;;3.37;3.07;;;23.00;60.70;;;;;;4865157;29;20633;-84
2023/07/26 17:01:39;;;;;;;3.30;3.00;;;23.00;61.00;;;;;;4909090;23;20479;-83
2023/07/26 17:04:57;;;;;;;3.87;2.90;;;23.00;61.70;;;;;;4982820;28;20674;-84
2023/07/26 17:08:02;;;;;;;4.57;3.60;;;23.10;61.30;;;;;;4970790;28;20493;-83
2023/07/26 17:14:32;;;;;;;2.60;2.40;;;23.10;61.40;;;;;;4978700;28;20998;-82
2023/07/26 17:17:34;;;;;;;3.27;2.87;;;23.10;59.70;;;;;;4965834;28;20542;-84
2023/07/26 17:20:31;;;;;;;4.53;2.83;;;23.00;59.60;;;;;;4965283;28;20833;-83
2023/07/26 17:23:55;;;;;;;2.80;2.60;;;23.10;59.20;;;;;;4982407;28;20451;-84
2023/07/26 17:26:52;;;;;;;2.90;2.70;;;23.00;59.20;;;;;;4971367;28;20487;-84
2023/07/26 17:29:39;;;;;;;2.90;2.60;;;22.90;59.20;;;;;;4968352;28;20467;-85
2023/07/26 17:33:15;;;;;;;3.00;2.70;;;22.90;59.00;;;;;;4964886;28;20479;-83
2023/07/26 17:36:56;;;;;;;3.30;2.80;;;22.80;58.70;;;;;;4913676;28;20489;-81
2023/07/26 17:39:53;;;;;;;3.67;2.67;;;22.80;58.70;;;;;;4942789;29;20464;-83
2023/07/26 17:42:40;;;;;;;3.30;2.40;;;22.70;58.90;;;;;;5305297;23;20553;-83
2023/07/26 17:46:16;;;;;;;2.57;2.37;;;22.60;58.60;;;;;;5005805;28;21011;-82
2023/07/26 17:54:24;;;;;;;;;;;;;;;;;;;;;
2023/07/26 17:57:58;;;;;;;2.80;2.60;;;22.60;59.60;;;;;;4938935;28;20472;-84
2023/07/26 18:01:13;;;;;;;2.90;2.60;;;22.50;59.60;;;;;;4995428;28;20490;-83
2023/07/26 18:04:19;;;;;;;3.80;2.77;;;22.40;59.40;;;;;;5016066;28;20526;-84
2023/07/26 18:07:47;;;;;;;3.70;3.40;;;22.40;60.00;;;;;;5002890;28;20482;-83
2023/07/26 18:10:46;;;;;;;3.93;2.73;;;22.40;60.90;;;;;;4994225;28;20476;-83
2023/07/26 18:13:45;;;;;;;3.03;2.67;;;22.30;60.70;;;;;;4989726;28;20469;-83
2023/07/26 18:16:58;;;;;;;3.17;2.80;;;22.30;61.00;;;;;;5008627;28;20446;-83
2023/07/26 18:23:00;;;;;;;4.10;2.93;;;22.30;61.20;;;;;;5014647;23;20605;-83
2023/07/26 18:25:50;;;;;;;3.00;2.60;;;22.30;61.20;;;;;;4990982;28;20498;-83
2023/07/26 18:28:32;;;;;;;4.20;2.63;;;22.20;61.60;;;;;;4989532;28;20494;-82
2023/07/26 18:31:44;;;;;;;3.60;2.53;;;22.20;61.80;;;;;;4987030;28;20516;-82
2023/07/26 18:34:35;;;;;;;6.00;3.50;;;22.20;62.50;;;;;;4913443;29;20938;-84
2023/07/26 18:37:35;;;;;;;2.50;2.30;;;22.20;62.40;;;;;;4903070;29;20532;-83
2023/07/26 18:40:21;;;;;;;5.10;4.70;;;22.20;63.00;;;;;;4893441;29;21031;-86
2023/07/26 18:43:27;;;;;;;3.40;3.07;;;22.10;62.50;;;;;;4894776;29;20523;-82
2023/07/26 18:46:19;;;;;;;3.10;2.80;;;22.10;62.50;;;;;;4906027;29;20518;-85